sensor_id;sensor_type;location;lat;lon;timestamp;P1;durP1;ratioP1;P2;durP2;ratioP2
7903;SDS011;3997;48.416;8.512;2022-09-29T00:01:03;4.70;;;2.33;;
7903;SDS011;3997;48.416;8.512;2022-09-29T00:03:30;7.95;;;2.20;;
7903;SDS011;3997;48.416;8.512;2022-09-29T00:05:58;4.45;;;2.17;;
7903;SDS011;3997;48.416;8.512;2022-09-29T00:08:25;2.47;;;2.38;;
7903;SDS011;3997;48.416;8.512;2022-09-29T00:10:52;2.92;;;2.58;;
7903;SDS011;3997;48.416;8.512;2022-09-29T00:13:18;4.63;;;2.28;;
7903;SDS011;3997;48.416;8.512;2022-09-29T00:15:53;2.20;;;2.10;;
7903;SDS011;3997;48.416;8.512;2022-09-29T00:18:20;3.05;;;2.80;;
7903;SDS011;3997;48.416;8.512;2022-09-29T00:20:54;2.70;;;2.50;;
7903;SDS011;3997;48.416;8.512;2022-09-29T00:23:23;2.38;;;2.17;;
7903;SDS011;3997;48.416;8.512;2022-09-29T00:25:57;2.38;;;2.17;;
7903;SDS011;3997;48.416;8.512;2022-09-29T00:28:24;2.70;;;2.50;;
7903;SDS011;3997;48.416;8.512;2022-09-29T00:30:50;2.60;;;2.30;;
7903;SDS011;3997;48.416;8.512;2022-09-29T00:33:16;2.63;;;2.42;;
7903;SDS011;3997;48.416;8.512;2022-09-29T00:35:43;5.00;;;2.47;;
7903;SDS011;3997;48.416;8.512;2022-09-29T00:38:09;2.17;;;1.95;;
7903;SDS011;3997;48.416;8.512;2022-09-29T00:40:37;2.80;;;2.33;;
7903;SDS011;3997;48.416;8.512;2022-09-29T00:43:04;2.55;;;2.35;;
7903;SDS011;3997;48.416;8.512;2022-09-29T00:45:31;2.20;;;2.00;;
7903;SDS011;3997;48.416;8.512;2022-09-29T00:48:01;2.40;;;2.15;;
7903;SDS011;3997;48.416;8.512;2022-09-29T00:50:31;2.33;;;2.20;;
7903;SDS011;3997;48.416;8.512;2022-09-29T00:52:59;3.08;;;2.25;;
7903;SDS011;3997;48.416;8.512;2022-09-29T00:55:33;2.40;;;2.30;;
7903;SDS011;3997;48.416;8.512;2022-09-29T00:58:03;2.45;;;2.17;;
7903;SDS011;3997;48.416;8.512;2022-09-29T01:00:31;3.95;;;2.17;;
7903;SDS011;3997;48.416;8.512;2022-09-29T01:02:59;2.38;;;2.10;;
7903;SDS011;3997;48.416;8.512;2022-09-29T01:05:28;2.50;;;2.28;;
7903;SDS011;3997;48.416;8.512;2022-09-29T01:07:56;2.58;;;2.38;;
7903;SDS011;3997;48.416;8.512;2022-09-29T01:10:23;2.80;;;2.60;;
7903;SDS011;3997;48.416;8.512;2022-09-29T01:12:51;2.58;;;2.28;;
7903;SDS011;3997;48.416;8.512;2022-09-29T01:15:19;3.28;;;2.47;;
7903;SDS011;3997;48.416;8.512;2022-09-29T01:17:47;2.30;;;1.55;;
7903;SDS011;3997;48.416;8.512;2022-09-29T01:20:15;3.22;;;1.52;;
7903;SDS011;3997;48.416;8.512;2022-09-29T01:25:38;1.50;;;1.40;;
7903;SDS011;3997;48.416;8.512;2022-09-29T01:28:18;1.88;;;1.40;;
7903;SDS011;3997;48.416;8.512;2022-09-29T01:30:53;1.40;;;1.30;;
7903;SDS011;3997;48.416;8.512;2022-09-29T01:33:25;1.83;;;1.73;;
7903;SDS011;3997;48.416;8.512;2022-09-29T01:35:55;1.83;;;1.73;;
7903;SDS011;3997;48.416;8.512;2022-09-29T01:38:35;2.13;;;2.00;;
7903;SDS011;3997;48.416;8.512;2022-09-29T01:41:06;2.35;;;2.25;;
7903;SDS011;3997;48.416;8.512;2022-09-29T01:43:34;3.17;;;2.70;;
7903;SDS011;3997;48.416;8.512;2022-09-29T01:46:03;5.65;;;2.88;;
7903;SDS011;3997;48.416;8.512;2022-09-29T01:48:32;3.00;;;2.78;;
7903;SDS011;3997;48.416;8.512;2022-09-29T01:51:00;3.92;;;3.50;;
7903;SDS011;3997;48.416;8.512;2022-09-29T01:53:27;4.60;;;3.65;;
7903;SDS011;3997;48.416;8.512;2022-09-29T01:55:56;4.05;;;3.45;;
7903;SDS011;3997;48.416;8.512;2022-09-29T01:58:24;4.10;;;3.80;;
7903;SDS011;3997;48.416;8.512;2022-09-29T02:00:54;3.63;;;2.78;;
7903;SDS011;3997;48.416;8.512;2022-09-29T02:03:23;4.30;;;3.58;;
7903;SDS011;3997;48.416;8.512;2022-09-29T02:05:53;3.13;;;2.92;;
7903;SDS011;3997;48.416;8.512;2022-09-29T02:08:21;2.85;;;2.60;;
7903;SDS011;3997;48.416;8.512;2022-09-29T02:10:51;7.53;;;2.92;;
7903;SDS011;3997;48.416;8.512;2022-09-29T02:13:20;3.75;;;2.70;;
7903;SDS011;3997;48.416;8.512;2022-09-29T02:15:47;2.53;;;2.20;;
7903;SDS011;3997;48.416;8.512;2022-09-29T02:18:15;2.95;;;2.63;;
7903;SDS011;3997;48.416;8.512;2022-09-29T02:20:46;2.28;;;2.17;;
7903;SDS011;3997;48.416;8.512;2022-09-29T02:23:13;2.65;;;2.45;;
7903;SDS011;3997;48.416;8.512;2022-09-29T02:25:40;2.72;;;2.53;;
7903;SDS011;3997;48.416;8.512;2022-09-29T02:28:06;2.35;;;2.15;;
7903;SDS011;3997;48.416;8.512;2022-09-29T02:30:33;2.10;;;2.00;;
7903;SDS011;3997;48.416;8.512;2022-09-29T02:32:59;2.45;;;2.10;;
7903;SDS011;3997;48.416;8.512;2022-09-29T02:35:26;2.60;;;2.28;;
7903;SDS011;3997;48.416;8.512;2022-09-29T02:37:59;3.78;;;2.85;;
7903;SDS011;3997;48.416;8.512;2022-09-29T02:40:29;2.17;;;1.88;;
7903;SDS011;3997;48.416;8.512;2022-09-29T02:45:48;18.00;;;2.28;;
7903;SDS011;3997;48.416;8.512;2022-09-29T02:48:35;13.27;;;1.50;;
7903;SDS011;3997;48.416;8.512;2022-09-29T02:51:07;22.13;;;2.10;;
7903;SDS011;3997;48.416;8.512;2022-09-29T02:56:24;111.65;;;8.05;;
7903;SDS011;3997;48.416;8.512;2022-09-29T02:58:54;11.32;;;2.38;;
7903;SDS011;3997;48.416;8.512;2022-09-29T03:01:22;2.60;;;2.40;;
7903;SDS011;3997;48.416;8.512;2022-09-29T03:03:49;2.50;;;2.30;;
7903;SDS011;3997;48.416;8.512;2022-09-29T03:06:15;2.53;;;2.33;;
7903;SDS011;3997;48.416;8.512;2022-09-29T03:08:45;2.95;;;2.75;;
7903;SDS011;3997;48.416;8.512;2022-09-29T03:11:11;3.20;;;2.90;;
7903;SDS011;3997;48.416;8.512;2022-09-29T03:13:39;3.22;;;2.92;;
7903;SDS011;3997;48.416;8.512;2022-09-29T03:16:06;5.15;;;2.58;;
7903;SDS011;3997;48.416;8.512;2022-09-29T03:18:32;2.65;;;2.45;;
7903;SDS011;3997;48.416;8.512;2022-09-29T03:20:58;3.65;;;2.75;;
7903;SDS011;3997;48.416;8.512;2022-09-29T03:23:25;3.70;;;3.40;;
7903;SDS011;3997;48.416;8.512;2022-09-29T03:25:51;3.50;;;3.20;;
7903;SDS011;3997;48.416;8.512;2022-09-29T03:28:18;3.53;;;3.22;;
7903;SDS011;3997;48.416;8.512;2022-09-29T03:30:45;3.20;;;3.00;;
7903;SDS011;3997;48.416;8.512;2022-09-29T03:33:12;3.30;;;3.00;;
7903;SDS011;3997;48.416;8.512;2022-09-29T03:35:38;3.50;;;3.20;;
7903;SDS011;3997;48.416;8.512;2022-09-29T03:38:05;3.80;;;3.00;;
7903;SDS011;3997;48.416;8.512;2022-09-29T03:40:31;3.53;;;3.22;;
7903;SDS011;3997;48.416;8.512;2022-09-29T03:42:58;2.28;;;2.08;;
7903;SDS011;3997;48.416;8.512;2022-09-29T03:45:24;2.90;;;2.70;;
7903;SDS011;3997;48.416;8.512;2022-09-29T03:47:52;5.05;;;3.90;;
7903;SDS011;3997;48.416;8.512;2022-09-29T03:50:18;3.95;;;3.47;;
7903;SDS011;3997;48.416;8.512;2022-09-29T03:52:45;4.20;;;3.08;;
7903;SDS011;3997;48.416;8.512;2022-09-29T03:55:11;2.92;;;2.55;;
7903;SDS011;3997;48.416;8.512;2022-09-29T03:57:37;2.20;;;1.92;;
7903;SDS011;3997;48.416;8.512;2022-09-29T04:00:04;2.35;;;2.15;;
7903;SDS011;3997;48.416;8.512;2022-09-29T04:02:31;6.47;;;2.53;;
7903;SDS011;3997;48.416;8.512;2022-09-29T04:05:00;4.03;;;2.58;;
7903;SDS011;3997;48.416;8.512;2022-09-29T04:07:26;10.00;;;2.95;;
7903;SDS011;3997;48.416;8.512;2022-09-29T04:09:52;8.68;;;2.72;;
7903;SDS011;3997;48.416;8.512;2022-09-29T04:12:19;8.65;;;2.88;;
7903;SDS011;3997;48.416;8.512;2022-09-29T04:14:45;14.75;;;3.22;;
7903;SDS011;3997;48.416;8.512;2022-09-29T04:17:12;5.63;;;2.75;;
7903;SDS011;3997;48.416;8.512;2022-09-29T04:19:38;14.75;;;3.05;;
7903;SDS011;3997;48.416;8.512;2022-09-29T04:22:06;12.70;;;2.60;;
7903;SDS011;3997;48.416;8.512;2022-09-29T04:24:33;6.07;;;2.67;;
7903;SDS011;3997;48.416;8.512;2022-09-29T04:26:59;19.65;;;3.00;;
7903;SDS011;3997;48.416;8.512;2022-09-29T04:29:26;10.40;;;2.25;;
7903;SDS011;3997;48.416;8.512;2022-09-29T04:31:52;2.58;;;2.38;;
7903;SDS011;3997;48.416;8.512;2022-09-29T04:34:19;4.75;;;3.28;;
7903;SDS011;3997;48.416;8.512;2022-09-29T04:36:45;6.28;;;4.78;;
7903;SDS011;3997;48.416;8.512;2022-09-29T04:39:13;40.15;;;25.23;;
7903;SDS011;3997;48.416;8.512;2022-09-29T04:41:39;18.35;;;10.52;;
7903;SDS011;3997;48.416;8.512;2022-09-29T04:44:06;14.88;;;5.38;;
7903;SDS011;3997;48.416;8.512;2022-09-29T04:46:32;25.63;;;10.93;;
7903;SDS011;3997;48.416;8.512;2022-09-29T04:48:59;8.05;;;5.78;;
7903;SDS011;3997;48.416;8.512;2022-09-29T04:51:25;7.45;;;5.50;;
7903;SDS011;3997;48.416;8.512;2022-09-29T04:53:51;7.18;;;5.60;;
7903;SDS011;3997;48.416;8.512;2022-09-29T04:56:19;5.05;;;3.97;;
7903;SDS011;3997;48.416;8.512;2022-09-29T04:58:46;12.85;;;4.47;;
7903;SDS011;3997;48.416;8.512;2022-09-29T05:01:12;6.60;;;3.55;;
7903;SDS011;3997;48.416;8.512;2022-09-29T05:03:39;3.05;;;2.60;;
7903;SDS011;3997;48.416;8.512;2022-09-29T05:06:06;2.80;;;2.00;;
7903;SDS011;3997;48.416;8.512;2022-09-29T05:08:32;2.20;;;2.08;;
7903;SDS011;3997;48.416;8.512;2022-09-29T05:11:01;3.00;;;2.80;;
7903;SDS011;3997;48.416;8.512;2022-09-29T05:13:29;6.13;;;4.25;;
7903;SDS011;3997;48.416;8.512;2022-09-29T05:15:56;122.85;;;7.95;;
7903;SDS011;3997;48.416;8.512;2022-09-29T05:18:22;22.48;;;5.03;;
7903;SDS011;3997;48.416;8.512;2022-09-29T05:20:49;16.67;;;5.05;;
7903;SDS011;3997;48.416;8.512;2022-09-29T05:23:15;8.35;;;5.78;;
7903;SDS011;3997;48.416;8.512;2022-09-29T05:25:41;10.32;;;6.05;;
7903;SDS011;3997;48.416;8.512;2022-09-29T05:28:09;6.40;;;4.00;;
7903;SDS011;3997;48.416;8.512;2022-09-29T05:30:37;2.55;;;2.35;;
7903;SDS011;3997;48.416;8.512;2022-09-29T05:33:03;3.63;;;2.03;;
7903;SDS011;3997;48.416;8.512;2022-09-29T05:35:30;3.00;;;2.15;;
7903;SDS011;3997;48.416;8.512;2022-09-29T05:37:56;2.40;;;2.20;;
7903;SDS011;3997;48.416;8.512;2022-09-29T05:40:23;5.45;;;2.30;;
7903;SDS011;3997;48.416;8.512;2022-09-29T05:42:49;2.10;;;1.98;;
7903;SDS011;3997;48.416;8.512;2022-09-29T05:45:16;6.32;;;4.05;;
7903;SDS011;3997;48.416;8.512;2022-09-29T05:47:44;7.28;;;5.78;;
7903;SDS011;3997;48.416;8.512;2022-09-29T05:50:11;8.05;;;6.00;;
7903;SDS011;3997;48.416;8.512;2022-09-29T05:52:37;7.78;;;5.18;;
7903;SDS011;3997;48.416;8.512;2022-09-29T05:55:04;5.38;;;3.88;;
7903;SDS011;3997;48.416;8.512;2022-09-29T05:57:33;35.67;;;10.75;;
7903;SDS011;3997;48.416;8.512;2022-09-29T06:00:00;50.35;;;15.10;;
7903;SDS011;3997;48.416;8.512;2022-09-29T06:02:27;48.28;;;13.02;;
7903;SDS011;3997;48.416;8.512;2022-09-29T06:04:54;19.88;;;11.10;;
7903;SDS011;3997;48.416;8.512;2022-09-29T06:07:21;10.15;;;6.68;;
7903;SDS011;3997;48.416;8.512;2022-09-29T06:09:47;6.68;;;3.25;;
7903;SDS011;3997;48.416;8.512;2022-09-29T06:12:14;4.00;;;2.88;;
7903;SDS011;3997;48.416;8.512;2022-09-29T06:14:40;3.20;;;2.90;;
7903;SDS011;3997;48.416;8.512;2022-09-29T06:17:06;5.10;;;3.30;;
7903;SDS011;3997;48.416;8.512;2022-09-29T06:19:33;4.50;;;3.13;;
7903;SDS011;3997;48.416;8.512;2022-09-29T06:22:01;5.30;;;3.70;;
7903;SDS011;3997;48.416;8.512;2022-09-29T06:24:27;8.02;;;5.80;;
7903;SDS011;3997;48.416;8.512;2022-09-29T06:26:53;5.93;;;4.75;;
7903;SDS011;3997;48.416;8.512;2022-09-29T06:29:20;6.28;;;4.05;;
7903;SDS011;3997;48.416;8.512;2022-09-29T06:31:46;4.72;;;3.72;;
7903;SDS011;3997;48.416;8.512;2022-09-29T06:34:13;3.70;;;3.40;;
7903;SDS011;3997;48.416;8.512;2022-09-29T06:36:40;3.50;;;3.03;;
7903;SDS011;3997;48.416;8.512;2022-09-29T06:39:26;4.53;;;2.92;;
7903;SDS011;3997;48.416;8.512;2022-09-29T06:41:52;3.92;;;3.15;;
7903;SDS011;3997;48.416;8.512;2022-09-29T06:44:20;3.08;;;2.70;;
7903;SDS011;3997;48.416;8.512;2022-09-29T06:46:48;6.13;;;3.00;;
7903;SDS011;3997;48.416;8.512;2022-09-29T06:49:15;3.25;;;2.95;;
7903;SDS011;3997;48.416;8.512;2022-09-29T06:51:42;3.78;;;3.03;;
7903;SDS011;3997;48.416;8.512;2022-09-29T06:54:08;5.90;;;3.17;;
7903;SDS011;3997;48.416;8.512;2022-09-29T06:56:36;7.50;;;2.70;;
7903;SDS011;3997;48.416;8.512;2022-09-29T06:59:03;2.78;;;2.53;;
7903;SDS011;3997;48.416;8.512;2022-09-29T07:01:29;2.42;;;2.22;;
7903;SDS011;3997;48.416;8.512;2022-09-29T07:03:55;3.20;;;2.83;;
7903;SDS011;3997;48.416;8.512;2022-09-29T07:06:24;5.63;;;5.13;;
7903;SDS011;3997;48.416;8.512;2022-09-29T07:08:52;2.95;;;2.67;;
7903;SDS011;3997;48.416;8.512;2022-09-29T07:11:19;2.95;;;2.70;;
7903;SDS011;3997;48.416;8.512;2022-09-29T07:13:48;3.08;;;2.88;;
7903;SDS011;3997;48.416;8.512;2022-09-29T07:16:14;3.78;;;2.90;;
7903;SDS011;3997;48.416;8.512;2022-09-29T07:18:41;4.00;;;3.70;;
7903;SDS011;3997;48.416;8.512;2022-09-29T07:21:09;3.15;;;2.95;;
7903;SDS011;3997;48.416;8.512;2022-09-29T07:23:36;2.88;;;2.58;;
7903;SDS011;3997;48.416;8.512;2022-09-29T07:26:03;3.80;;;2.42;;
7903;SDS011;3997;48.416;8.512;2022-09-29T07:28:29;3.80;;;3.50;;
7903;SDS011;3997;48.416;8.512;2022-09-29T07:31:00;3.22;;;3.03;;
7903;SDS011;3997;48.416;8.512;2022-09-29T07:33:27;4.47;;;3.08;;
7903;SDS011;3997;48.416;8.512;2022-09-29T07:35:54;3.33;;;3.03;;
7903;SDS011;3997;48.416;8.512;2022-09-29T07:38:21;2.45;;;2.22;;
7903;SDS011;3997;48.416;8.512;2022-09-29T07:40:48;4.10;;;2.70;;
7903;SDS011;3997;48.416;8.512;2022-09-29T07:43:14;2.78;;;2.35;;
7903;SDS011;3997;48.416;8.512;2022-09-29T07:45:44;3.33;;;2.45;;
7903;SDS011;3997;48.416;8.512;2022-09-29T07:48:12;2.60;;;2.40;;
7903;SDS011;3997;48.416;8.512;2022-09-29T07:50:39;2.40;;;2.20;;
7903;SDS011;3997;48.416;8.512;2022-09-29T07:53:05;4.38;;;2.80;;
7903;SDS011;3997;48.416;8.512;2022-09-29T07:55:31;3.67;;;3.28;;
7903;SDS011;3997;48.416;8.512;2022-09-29T07:57:58;3.63;;;3.33;;
7903;SDS011;3997;48.416;8.512;2022-09-29T08:00:25;5.20;;;3.38;;
7903;SDS011;3997;48.416;8.512;2022-09-29T08:02:52;4.43;;;4.03;;
7903;SDS011;3997;48.416;8.512;2022-09-29T08:05:20;3.80;;;3.50;;
7903;SDS011;3997;48.416;8.512;2022-09-29T08:07:49;3.80;;;3.47;;
7903;SDS011;3997;48.416;8.512;2022-09-29T08:10:16;2.88;;;2.60;;
7903;SDS011;3997;48.416;8.512;2022-09-29T08:12:42;2.92;;;2.60;;
7903;SDS011;3997;48.416;8.512;2022-09-29T08:15:09;4.65;;;3.38;;
7903;SDS011;3997;48.416;8.512;2022-09-29T08:17:35;3.75;;;3.38;;
7903;SDS011;3997;48.416;8.512;2022-09-29T08:20:02;3.30;;;3.00;;
7903;SDS011;3997;48.416;8.512;2022-09-29T08:22:30;3.33;;;3.03;;
7903;SDS011;3997;48.416;8.512;2022-09-29T08:24:56;2.85;;;2.65;;
7903;SDS011;3997;48.416;8.512;2022-09-29T08:27:23;3.38;;;3.05;;
7903;SDS011;3997;48.416;8.512;2022-09-29T08:29:50;2.78;;;2.42;;
7903;SDS011;3997;48.416;8.512;2022-09-29T08:32:16;4.05;;;2.72;;
7903;SDS011;3997;48.416;8.512;2022-09-29T08:34:43;3.67;;;3.38;;
7903;SDS011;3997;48.416;8.512;2022-09-29T08:37:09;4.65;;;3.88;;
7903;SDS011;3997;48.416;8.512;2022-09-29T08:39:37;4.07;;;3.67;;
7903;SDS011;3997;48.416;8.512;2022-09-29T08:42:05;3.70;;;3.38;;
7903;SDS011;3997;48.416;8.512;2022-09-29T08:44:37;4.60;;;3.67;;
7903;SDS011;3997;48.416;8.512;2022-09-29T08:47:10;5.50;;;3.70;;
7903;SDS011;3997;48.416;8.512;2022-09-29T08:49:40;5.03;;;4.03;;
7903;SDS011;3997;48.416;8.512;2022-09-29T08:52:08;3.92;;;3.53;;
7903;SDS011;3997;48.416;8.512;2022-09-29T08:54:38;3.60;;;3.30;;
7903;SDS011;3997;48.416;8.512;2022-09-29T08:57:05;3.97;;;3.60;;
7903;SDS011;3997;48.416;8.512;2022-09-29T08:59:32;3.78;;;3.22;;
7903;SDS011;3997;48.416;8.512;2022-09-29T09:02:02;3.42;;;3.13;;
7903;SDS011;3997;48.416;8.512;2022-09-29T09:04:45;3.85;;;3.45;;
7903;SDS011;3997;48.416;8.512;2022-09-29T09:07:17;3.22;;;2.80;;
7903;SDS011;3997;48.416;8.512;2022-09-29T09:09:51;3.67;;;3.38;;
7903;SDS011;3997;48.416;8.512;2022-09-29T09:12:24;3.40;;;3.10;;
7903;SDS011;3997;48.416;8.512;2022-09-29T09:14:58;3.85;;;3.55;;
7903;SDS011;3997;48.416;8.512;2022-09-29T09:17:29;3.22;;;2.92;;
7903;SDS011;3997;48.416;8.512;2022-09-29T09:20:00;3.17;;;2.88;;
7903;SDS011;3997;48.416;8.512;2022-09-29T09:22:31;4.07;;;2.60;;
7903;SDS011;3997;48.416;8.512;2022-09-29T09:25:05;3.45;;;2.92;;
7903;SDS011;3997;48.416;8.512;2022-09-29T09:27:34;4.45;;;2.90;;
7903;SDS011;3997;48.416;8.512;2022-09-29T09:30:03;2.72;;;2.53;;
7903;SDS011;3997;48.416;8.512;2022-09-29T09:32:31;2.53;;;2.33;;
7903;SDS011;3997;48.416;8.512;2022-09-29T09:34:59;3.60;;;2.00;;
7903;SDS011;3997;48.416;8.512;2022-09-29T09:37:27;1.88;;;1.77;;
7903;SDS011;3997;48.416;8.512;2022-09-29T09:39:56;2.42;;;2.00;;
7903;SDS011;3997;48.416;8.512;2022-09-29T09:42:27;1.98;;;1.77;;
7903;SDS011;3997;48.416;8.512;2022-09-29T09:44:56;2.80;;;2.00;;
7903;SDS011;3997;48.416;8.512;2022-09-29T09:47:24;2.58;;;1.80;;
7903;SDS011;3997;48.416;8.512;2022-09-29T09:49:53;2.13;;;2.03;;
7903;SDS011;3997;48.416;8.512;2022-09-29T09:52:21;2.10;;;1.90;;
7903;SDS011;3997;48.416;8.512;2022-09-29T09:54:50;1.88;;;1.70;;
7903;SDS011;3997;48.416;8.512;2022-09-29T09:57:28;2.00;;;1.60;;
7903;SDS011;3997;48.416;8.512;2022-09-29T10:00:06;1.58;;;1.02;;
7903;SDS011;3997;48.416;8.512;2022-09-29T10:02:41;1.92;;;1.10;;
7903;SDS011;3997;48.416;8.512;2022-09-29T10:05:09;0.77;;;0.70;;
7903;SDS011;3997;48.416;8.512;2022-09-29T10:07:37;1.83;;;1.10;;
7903;SDS011;3997;48.416;8.512;2022-09-29T10:10:04;0.90;;;0.90;;
7903;SDS011;3997;48.416;8.512;2022-09-29T10:12:34;1.00;;;0.90;;
7903;SDS011;3997;48.416;8.512;2022-09-29T10:15:03;2.83;;;1.08;;
7903;SDS011;3997;48.416;8.512;2022-09-29T10:17:31;2.22;;;1.00;;
7903;SDS011;3997;48.416;8.512;2022-09-29T10:19:59;1.40;;;1.15;;
7903;SDS011;3997;48.416;8.512;2022-09-29T10:22:26;1.15;;;0.90;;
7903;SDS011;3997;48.416;8.512;2022-09-29T10:24:53;1.20;;;1.10;;
7903;SDS011;3997;48.416;8.512;2022-09-29T10:27:22;2.88;;;1.38;;
7903;SDS011;3997;48.416;8.512;2022-09-29T10:29:52;1.10;;;1.00;;
7903;SDS011;3997;48.416;8.512;2022-09-29T10:32:22;0.73;;;0.73;;
7903;SDS011;3997;48.416;8.512;2022-09-29T10:34:52;0.95;;;0.95;;
7903;SDS011;3997;48.416;8.512;2022-09-29T10:37:20;1.20;;;0.95;;
7903;SDS011;3997;48.416;8.512;2022-09-29T10:39:49;1.50;;;0.98;;
7903;SDS011;3997;48.416;8.512;2022-09-29T10:42:18;1.42;;;0.90;;
7903;SDS011;3997;48.416;8.512;2022-09-29T10:44:48;1.25;;;1.10;;
7903;SDS011;3997;48.416;8.512;2022-09-29T10:47:16;1.15;;;1.00;;
7903;SDS011;3997;48.416;8.512;2022-09-29T10:49:44;1.05;;;0.95;;
7903;SDS011;3997;48.416;8.512;2022-09-29T10:52:21;1.10;;;1.00;;
7903;SDS011;3997;48.416;8.512;2022-09-29T10:54:52;1.25;;;0.95;;
7903;SDS011;3997;48.416;8.512;2022-09-29T10:57:20;2.03;;;0.98;;
7903;SDS011;3997;48.416;8.512;2022-09-29T10:59:49;1.02;;;0.88;;
7903;SDS011;3997;48.416;8.512;2022-09-29T11:02:20;1.00;;;1.00;;
7903;SDS011;3997;48.416;8.512;2022-09-29T11:04:49;0.98;;;0.85;;
7903;SDS011;3997;48.416;8.512;2022-09-29T11:07:16;1.05;;;0.90;;
7903;SDS011;3997;48.416;8.512;2022-09-29T11:09:42;2.20;;;1.20;;
7903;SDS011;3997;48.416;8.512;2022-09-29T11:14:55;1.30;;;1.20;;
7903;SDS011;3997;48.416;8.512;2022-09-29T11:17:24;1.40;;;1.30;;
7903;SDS011;3997;48.416;8.512;2022-09-29T11:19:51;1.25;;;1.00;;
7903;SDS011;3997;48.416;8.512;2022-09-29T11:22:26;2.28;;;1.20;;
7903;SDS011;3997;48.416;8.512;2022-09-29T11:24:58;1.30;;;1.10;;
7903;SDS011;3997;48.416;8.512;2022-09-29T11:27:32;1.45;;;1.30;;
7903;SDS011;3997;48.416;8.512;2022-09-29T11:30:02;1.65;;;1.35;;
7903;SDS011;3997;48.416;8.512;2022-09-29T11:32:36;1.75;;;1.30;;
7903;SDS011;3997;48.416;8.512;2022-09-29T11:35:06;1.35;;;0.90;;
7903;SDS011;3997;48.416;8.512;2022-09-29T11:37:44;2.05;;;1.30;;
7903;SDS011;3997;48.416;8.512;2022-09-29T11:40:16;1.90;;;1.60;;
7903;SDS011;3997;48.416;8.512;2022-09-29T11:42:48;2.90;;;1.38;;
7903;SDS011;3997;48.416;8.512;2022-09-29T11:45:17;1.73;;;1.40;;
7903;SDS011;3997;48.416;8.512;2022-09-29T11:48:09;1.50;;;1.40;;
7903;SDS011;3997;48.416;8.512;2022-09-29T11:50:41;1.50;;;1.40;;
7903;SDS011;3997;48.416;8.512;2022-09-29T11:53:17;1.40;;;1.30;;
7903;SDS011;3997;48.416;8.512;2022-09-29T11:55:52;2.25;;;1.33;;
7903;SDS011;3997;48.416;8.512;2022-09-29T11:58:26;1.70;;;1.60;;
7903;SDS011;3997;48.416;8.512;2022-09-29T12:01:02;4.18;;;1.45;;
7903;SDS011;3997;48.416;8.512;2022-09-29T12:03:35;1.60;;;1.50;;
7903;SDS011;3997;48.416;8.512;2022-09-29T12:06:17;2.17;;;2.00;;
7903;SDS011;3997;48.416;8.512;2022-09-29T12:08:49;2.70;;;1.92;;
7903;SDS011;3997;48.416;8.512;2022-09-29T12:11:20;1.85;;;1.75;;
7903;SDS011;3997;48.416;8.512;2022-09-29T12:13:50;1.80;;;1.70;;
7903;SDS011;3997;48.416;8.512;2022-09-29T12:16:18;2.65;;;1.63;;
7903;SDS011;3997;48.416;8.512;2022-09-29T12:18:48;1.90;;;1.70;;
7903;SDS011;3997;48.416;8.512;2022-09-29T12:21:16;2.03;;;1.88;;
7903;SDS011;3997;48.416;8.512;2022-09-29T12:23:43;1.90;;;1.70;;
7903;SDS011;3997;48.416;8.512;2022-09-29T12:26:12;1.77;;;1.67;;
7903;SDS011;3997;48.416;8.512;2022-09-29T12:28:40;1.40;;;1.30;;
7903;SDS011;3997;48.416;8.512;2022-09-29T12:31:10;1.55;;;1.45;;
7903;SDS011;3997;48.416;8.512;2022-09-29T12:33:38;1.42;;;1.20;;
7903;SDS011;3997;48.416;8.512;2022-09-29T12:36:15;2.13;;;1.58;;
7903;SDS011;3997;48.416;8.512;2022-09-29T12:39:02;1.77;;;1.67;;
7903;SDS011;3997;48.416;8.512;2022-09-29T12:41:31;1.60;;;1.50;;
7903;SDS011;3997;48.416;8.512;2022-09-29T12:44:03;1.67;;;1.58;;
7903;SDS011;3997;48.416;8.512;2022-09-29T12:46:33;3.47;;;1.70;;
7903;SDS011;3997;48.416;8.512;2022-09-29T12:49:03;1.40;;;1.30;;
7903;SDS011;3997;48.416;8.512;2022-09-29T12:51:36;1.95;;;1.60;;
7903;SDS011;3997;48.416;8.512;2022-09-29T12:54:05;2.13;;;1.30;;
7903;SDS011;3997;48.416;8.512;2022-09-29T12:56:35;1.73;;;1.63;;
7903;SDS011;3997;48.416;8.512;2022-09-29T12:59:04;1.65;;;1.52;;
7903;SDS011;3997;48.416;8.512;2022-09-29T13:01:33;1.50;;;1.40;;
7903;SDS011;3997;48.416;8.512;2022-09-29T13:07:01;1.60;;;1.50;;
7903;SDS011;3997;48.416;8.512;2022-09-29T13:12:17;1.23;;;1.13;;
7903;SDS011;3997;48.416;8.512;2022-09-29T13:14:58;3.03;;;1.55;;
7903;SDS011;3997;48.416;8.512;2022-09-29T13:17:34;1.70;;;1.52;;
7903;SDS011;3997;48.416;8.512;2022-09-29T13:22:51;2.53;;;1.27;;
7903;SDS011;3997;48.416;8.512;2022-09-29T13:25:21;1.65;;;1.55;;
7903;SDS011;3997;48.416;8.512;2022-09-29T13:27:50;1.60;;;1.50;;
7903;SDS011;3997;48.416;8.512;2022-09-29T13:30:18;1.50;;;1.30;;
7903;SDS011;3997;48.416;8.512;2022-09-29T13:32:46;1.65;;;1.52;;
7903;SDS011;3997;48.416;8.512;2022-09-29T13:35:14;1.40;;;1.30;;
7903;SDS011;3997;48.416;8.512;2022-09-29T13:37:45;2.40;;;1.70;;
7903;SDS011;3997;48.416;8.512;2022-09-29T13:40:18;1.98;;;1.55;;
7903;SDS011;3997;48.416;8.512;2022-09-29T13:42:46;1.40;;;1.30;;
7903;SDS011;3997;48.416;8.512;2022-09-29T13:45:17;1.50;;;1.40;;
7903;SDS011;3997;48.416;8.512;2022-09-29T13:48:01;1.48;;;1.38;;
7903;SDS011;3997;48.416;8.512;2022-09-29T13:50:41;1.35;;;1.25;;
7903;SDS011;3997;48.416;8.512;2022-09-29T13:53:31;1.63;;;1.50;;
7903;SDS011;3997;48.416;8.512;2022-09-29T13:56:09;2.17;;;1.38;;
7903;SDS011;3997;48.416;8.512;2022-09-29T13:58:37;1.85;;;1.75;;
7903;SDS011;3997;48.416;8.512;2022-09-29T14:01:06;1.98;;;1.80;;
7903;SDS011;3997;48.416;8.512;2022-09-29T14:03:33;3.58;;;1.88;;
7903;SDS011;3997;48.416;8.512;2022-09-29T14:06:03;1.92;;;1.83;;
7903;SDS011;3997;48.416;8.512;2022-09-29T14:08:35;2.30;;;1.55;;
7903;SDS011;3997;48.416;8.512;2022-09-29T14:11:11;1.60;;;1.50;;
7903;SDS011;3997;48.416;8.512;2022-09-29T14:13:40;1.77;;;1.60;;
7903;SDS011;3997;48.416;8.512;2022-09-29T14:18:53;1.70;;;1.40;;
7903;SDS011;3997;48.416;8.512;2022-09-29T14:24:03;1.92;;;1.60;;
7903;SDS011;3997;48.416;8.512;2022-09-29T14:26:44;1.70;;;1.60;;
7903;SDS011;3997;48.416;8.512;2022-09-29T14:29:13;1.45;;;1.35;;
7903;SDS011;3997;48.416;8.512;2022-09-29T14:31:42;1.70;;;1.40;;
7903;SDS011;3997;48.416;8.512;2022-09-29T14:34:09;1.60;;;1.50;;
7903;SDS011;3997;48.416;8.512;2022-09-29T14:36:36;1.98;;;1.52;;
7903;SDS011;3997;48.416;8.512;2022-09-29T14:39:05;1.50;;;1.40;;
7903;SDS011;3997;48.416;8.512;2022-09-29T14:41:32;1.42;;;1.33;;
7903;SDS011;3997;48.416;8.512;2022-09-29T14:44:06;1.52;;;1.42;;
7903;SDS011;3997;48.416;8.512;2022-09-29T14:52:44;2.80;;;1.70;;
7903;SDS011;3997;48.416;8.512;2022-09-29T14:55:18;1.55;;;1.45;;
7903;SDS011;3997;48.416;8.512;2022-09-29T14:57:54;1.40;;;1.30;;
7903;SDS011;3997;48.416;8.512;2022-09-29T15:00:27;1.67;;;1.45;;
7903;SDS011;3997;48.416;8.512;2022-09-29T15:02:57;1.27;;;1.27;;
7903;SDS011;3997;48.416;8.512;2022-09-29T15:05:25;2.55;;;1.42;;
7903;SDS011;3997;48.416;8.512;2022-09-29T15:07:52;2.40;;;1.50;;
7903;SDS011;3997;48.416;8.512;2022-09-29T15:10:20;1.40;;;1.33;;
7903;SDS011;3997;48.416;8.512;2022-09-29T15:12:46;1.50;;;1.40;;
7903;SDS011;3997;48.416;8.512;2022-09-29T15:15:30;1.52;;;1.42;;
7903;SDS011;3997;48.416;8.512;2022-09-29T15:17:59;1.25;;;1.20;;
7903;SDS011;3997;48.416;8.512;2022-09-29T15:20:32;1.50;;;1.40;;
7903;SDS011;3997;48.416;8.512;2022-09-29T15:23:08;1.50;;;1.40;;
7903;SDS011;3997;48.416;8.512;2022-09-29T15:25:38;1.38;;;1.30;;
7903;SDS011;3997;48.416;8.512;2022-09-29T15:28:08;1.70;;;1.60;;
7903;SDS011;3997;48.416;8.512;2022-09-29T15:30:38;1.40;;;1.30;;
7903;SDS011;3997;48.416;8.512;2022-09-29T15:33:12;2.78;;;1.48;;
7903;SDS011;3997;48.416;8.512;2022-09-29T15:35:42;1.40;;;1.30;;
7903;SDS011;3997;48.416;8.512;2022-09-29T15:38:17;1.15;;;1.10;;
7903;SDS011;3997;48.416;8.512;2022-09-29T15:40:53;0.90;;;0.90;;
7903;SDS011;3997;48.416;8.512;2022-09-29T15:43:20;1.15;;;1.10;;
7903;SDS011;3997;48.416;8.512;2022-09-29T15:45:52;0.85;;;0.85;;
7903;SDS011;3997;48.416;8.512;2022-09-29T15:48:21;2.28;;;1.10;;
7903;SDS011;3997;48.416;8.512;2022-09-29T15:50:47;0.80;;;0.80;;
7903;SDS011;3997;48.416;8.512;2022-09-29T15:53:15;1.17;;;1.02;;
7903;SDS011;3997;48.416;8.512;2022-09-29T15:55:41;0.90;;;0.90;;
7903;SDS011;3997;48.416;8.512;2022-09-29T15:58:32;1.13;;;1.00;;